Time;durP1;ratioP1;P1;durP2;ratioP2;P2;SDS_P1;SDS_P2;PMS_P1;PMS_P2;Temp;Humidity;BMP_temperature;BMP_pressure;BME280_temperature;BME280_humidity;BME280_pressure;Samples;Min_cycle;Max_cycle;Signal;HPM_P1;HPM_P2
2023/02/08 00:00:07;;;;;;;20.27;13.57;;;;;;;-2.78;87.41;103146.59;5006664;28;20444;-88
2023/02/08 00:02:34;;;;;;;23.02;14.07;;;;;;;-2.69;87.38;103149.13;5007384;28;20066;-90
2023/02/08 00:05:01;;;;;;;21.90;13.13;;;;;;;-2.76;87.37;103126.94;5007901;28;20413;-91
2023/02/08 00:07:28;;;;;;;22.75;14.30;;;;;;;-2.69;87.29;103139.72;5006999;28;20105;-90
2023/02/08 00:09:55;;;;;;;22.90;13.48;;;;;;;-2.82;87.43;103121.84;5006704;28;20358;-91
2023/02/08 00:12:24;;;;;;;24.38;14.02;;;;;;;-2.58;87.42;103152.47;5008342;28;20048;-92
2023/02/08 00:14:50;;;;;;;22.60;13.95;;;;;;;-2.50;87.36;103139.59;5008380;28;20537;-92
2023/02/08 00:17:17;;;;;;;27.70;14.45;;;;;;;-2.57;87.41;103118.28;5004499;28;20046;-88
2023/02/08 00:19:44;;;;;;;21.92;13.23;;;;;;;-2.47;86.60;103122.47;5004447;28;20058;-89
2023/02/08 00:22:10;;;;;;;22.52;13.82;;;;;;;-2.52;86.78;103118.25;5004541;28;20122;-90
2023/02/08 00:24:38;;;;;;;24.20;14.15;;;;;;;-2.48;86.43;103112.25;5004883;28;20493;-90
2023/02/08 00:27:04;;;;;;;24.42;14.90;;;;;;;-2.48;85.88;103099.41;5005742;28;20050;-90
2023/02/08 00:29:33;;;;;;;23.45;14.00;;;;;;;-2.55;85.87;103088.34;5005228;28;20057;-89
2023/02/08 00:32:00;;;;;;;22.50;13.23;;;;;;;-2.39;86.01;103113.03;5004562;28;20055;-89
2023/02/08 00:34:26;;;;;;;22.17;13.27;;;;;;;-2.40;85.83;103118.16;5004993;28;20050;-89
2023/02/08 00:36:53;;;;;;;22.27;13.13;;;;;;;-2.56;86.32;103102.03;5004762;28;20062;-91
2023/02/08 00:39:42;;;;;;;21.45;13.13;;;;;;;-2.66;85.77;103087.59;5008573;28;20046;-89
2023/02/08 00:42:08;;;;;;;21.88;13.57;;;;;;;-2.81;86.19;103097.94;4996593;28;20058;-89
2023/02/08 00:44:37;;;;;;;24.10;13.88;;;;;;;-2.83;87.43;103107.34;4999905;28;20073;-91
2023/02/08 00:47:03;;;;;;;23.05;14.38;;;;;;;-2.86;87.11;103104.84;4985166;28;20055;-91
2023/02/08 00:49:30;;;;;;;24.38;13.38;;;;;;;-2.71;87.96;103126.06;4990822;28;20043;-90
2023/02/08 00:51:57;;;;;;;22.35;13.48;;;;;;;-2.82;87.68;103121.84;5004519;28;20054;-89
2023/02/08 00:54:24;;;;;;;24.15;14.18;;;;;;;-2.99;88.77;103103.19;5004472;28;20084;-89
2023/02/08 00:56:50;;;;;;;22.77;13.43;;;;;;;-2.95;88.76;103120.25;5002973;28;20156;-90
2023/02/08 00:59:17;;;;;;;22.65;13.98;;;;;;;-2.91;88.97;103119.38;5003873;28;20050;-90
2023/02/08 01:01:45;;;;;;;20.58;13.85;;;;;;;-3.07;89.21;103106.66;5004330;28;20454;-92
2023/02/08 01:04:12;;;;;;;22.25;13.73;;;;;;;-3.04;89.69;103118.59;4996257;28;20050;-89
2023/02/08 01:06:39;;;;;;;24.75;13.95;;;;;;;-3.20;89.98;103110.13;4997123;28;20054;-89
2023/02/08 01:09:06;;;;;;;24.98;13.88;;;;;;;-3.17;89.85;103124.63;5012399;28;20034;-88
2023/02/08 01:11:33;;;;;;;24.30;13.88;;;;;;;-3.26;90.03;103112.72;5015935;28;20052;-89
2023/02/08 01:14:00;;;;;;;23.25;13.75;;;;;;;-3.31;90.46;103100.81;4992391;28;20100;-90
2023/02/08 01:16:29;;;;;;;23.58;13.45;;;;;;;-3.19;90.36;103119.50;4989858;28;20038;-90
2023/02/08 01:18:59;;;;;;;22.55;13.77;;;;;;;-3.36;91.12;103098.28;4995193;28;20133;-90
2023/02/08 01:21:28;;;;;;;21.05;13.35;;;;;;;-3.24;90.71;103126.38;5001900;28;20085;-90
2023/02/08 01:23:55;;;;;;;24.58;14.45;;;;;;;-3.32;91.19;103120.44;5001457;28;20054;-90
2023/02/08 01:26:24;;;;;;;21.05;12.68;;;;;;;-3.27;91.22;103105.88;5000532;28;20062;-90
2023/02/08 01:28:52;;;;;;;21.13;13.45;;;;;;;-3.35;91.29;103111.06;4992824;28;20063;-90
2023/02/08 01:31:21;;;;;;;22.08;13.38;;;;;;;-3.35;91.32;103120.47;5001460;28;20046;-90
2023/02/08 01:33:48;;;;;;;24.00;13.35;;;;;;;-3.42;91.30;103109.38;5001314;28;20054;-90
2023/02/08 01:36:16;;;;;;;25.80;13.30;;;;;;;-3.48;91.36;103103.44;5001972;28;20077;-90
2023/02/08 01:38:44;;;;;;;20.13;13.23;;;;;;;-3.37;90.78;103111.94;5002157;28;20046;-90
2023/02/08 01:41:16;;;;;;;20.45;13.50;;;;;;;-3.34;90.89;103099.13;5002590;28;20054;-91
2023/02/08 01:44:01;;;;;;;23.23;13.48;;;;;;;-3.30;90.21;103108.47;5003255;28;20061;-91
2023/02/08 01:46:28;;;;;;;20.73;12.80;;;;;;;-3.28;90.27;103105.91;4990284;28;20046;-91
2023/02/08 01:48:59;;;;;;;22.92;13.48;;;;;;;-3.40;89.74;103105.13;5001135;28;20058;-91
2023/02/08 01:51:33;;;;;;;21.42;12.55;;;;;;;-3.57;90.42;103083.84;4986346;28;20031;-90
2023/02/08 01:54:03;;;;;;;21.73;12.30;;;;;;;-3.55;90.73;103089.81;4982607;28;20047;-89
2023/02/08 01:56:33;;;;;;;21.38;13.13;;;;;;;-3.54;91.09;103103.47;4982968;28;20482;-90
2023/02/08 01:59:03;;;;;;;21.13;12.18;;;;;;;-3.58;91.27;103096.66;4982649;28;20126;-89
2023/02/08 02:01:31;;;;;;;21.15;13.13;;;;;;;-3.73;91.23;103072.81;4982311;28;20125;-91
2023/02/08 02:04:05;;;;;;;20.95;12.95;;;;;;;-3.77;91.68;103077.94;4982324;28;20556;-89
2023/02/08 02:06:35;;;;;;;21.98;12.82;;;;;;;-3.62;91.86;103084.72;4982424;28;20055;-90
2023/02/08 02:09:12;;;;;;;20.60;13.48;;;;;;;-3.73;91.94;103067.69;4983354;28;20055;-89
2023/02/08 02:11:38;;;;;;;22.90;13.48;;;;;;;-3.59;92.30;103089.81;4982462;28;20053;-90
2023/02/08 02:14:06;;;;;;;21.75;12.80;;;;;;;-3.69;92.67;103078.75;4983082;28;20109;-89
2023/02/08 02:16:33;;;;;;;20.80;13.02;;;;;;;-3.70;92.68;103083.03;4983612;28;20047;-89
2023/02/08 02:19:00;;;;;;;21.40;12.88;;;;;;;-3.76;93.31;103072.81;4983185;28;20434;-90
2023/02/08 02:21:56;;;;;;;22.08;13.18;;;;;;;-3.83;93.22;103070.31;4983503;28;20139;-89
2023/02/08 02:25:01;;;;;;;22.20;13.38;;;;;;;-3.77;93.31;103076.22;4981713;28;20113;-90
2023/02/08 02:27:40;;;;;;;22.52;13.32;;;;;;;-3.83;93.75;103070.31;4982477;28;20058;-89
2023/02/08 02:31:07;;;;;;;21.35;13.15;;;;;;;-3.76;93.83;103106.06;4982668;28;20047;-89
2023/02/08 02:33:49;;;;;;;21.77;13.00;;;;;;;-3.94;93.81;103072.88;4982660;28;20050;-89
2023/02/08 02:36:24;;;;;;;24.85;14.02;;;;;;;-3.93;94.24;103068.63;4982620;28;20055;-90
2023/02/08 02:39:04;;;;;;;24.70;14.00;;;;;;;-3.84;94.47;103100.16;4982142;28;20062;-89
2023/02/08 02:44:36;;;;;;;28.80;14.10;;;;;;;-3.90;95.01;103104.44;4982192;28;20141;-89
2023/02/08 02:47:09;;;;;;;27.05;13.98;;;;;;;-4.08;94.54;103069.50;4982205;28;20050;-89
2023/02/08 02:49:47;;;;;;;24.67;14.27;;;;;;;-4.05;94.99;103082.28;4982147;28;20133;-89
2023/02/08 02:52:20;;;;;;;25.05;13.80;;;;;;;-4.03;94.86;103078.03;4982732;28;20051;-88
2023/02/08 02:54:50;;;;;;;22.65;14.13;;;;;;;-3.98;94.97;103096.75;4982783;28;20465;-89
2023/02/08 02:57:26;;;;;;;24.77;13.63;;;;;;;-3.95;95.16;103104.44;4981966;28;20051;-88
2023/02/08 02:59:53;;;;;;;23.40;13.88;;;;;;;-3.96;94.71;103089.94;4981278;28;20078;-88
2023/02/08 03:02:21;;;;;;;22.15;12.70;;;;;;;-4.01;95.04;103086.53;4980824;28;20054;-88
2023/02/08 03:04:53;;;;;;;21.48;13.30;;;;;;;-4.02;95.17;103082.28;4981721;28;20054;-88
2023/02/08 03:07:49;;;;;;;26.45;14.55;;;;;;;-4.21;95.10;103062.69;4981411;28;20168;-88
2023/02/08 03:10:29;;;;;;;23.10;13.25;;;;;;;-4.18;95.48;103078.03;4981074;28;20153;-88
2023/02/08 03:13:03;;;;;;;24.80;13.02;;;;;;;-4.17;95.32;103072.06;4980855;28;20494;-88
2023/02/08 03:15:40;;;;;;;21.83;12.50;;;;;;;-4.19;95.56;103066.09;4981534;28;20038;-88
2023/02/08 03:18:23;;;;;;;22.65;13.57;;;;;;;-4.08;95.83;103069.50;4981030;28;20042;-89
2023/02/08 03:20:59;;;;;;;22.35;13.93;;;;;;;-4.22;95.83;103056.75;4979872;28;20493;-88
2023/02/08 03:23:29;;;;;;;25.13;14.10;;;;;;;-4.04;95.74;103094.22;4980737;28;20123;-88
2023/02/08 03:26:05;;;;;;;21.42;13.70;;;;;;;-4.11;95.81;103080.59;4980326;28;20490;-88
2023/02/08 03:28:41;;;;;;;22.75;13.30;;;;;;;-4.23;95.84;103060.16;4981845;28;20138;-90
2023/02/08 03:31:15;;;;;;;23.40;13.65;;;;;;;-4.15;95.99;103073.78;4981736;28;20523;-90
2023/02/08 03:33:49;;;;;;;23.10;14.45;;;;;;;-4.22;96.16;103059.28;4985395;28;20043;-91
2023/02/08 03:36:22;;;;;;;24.70;14.23;;;;;;;-4.11;96.57;103074.63;4983626;28;20059;-90
2023/02/08 03:38:50;;;;;;;24.90;15.02;;;;;;;-3.93;96.27;103082.25;4985860;28;20186;-89
2023/02/08 03:41:22;;;;;;;25.02;14.20;;;;;;;-3.99;96.51;103064.38;4994275;28;20529;-91
2023/02/08 03:43:56;;;;;;;24.55;13.77;;;;;;;-4.06;96.32;103063.53;4999435;28;20046;-90
2023/02/08 03:46:27;;;;;;;27.08;14.95;;;;;;;-3.82;96.16;103072.88;5000316;28;20085;-91
2023/02/08 03:48:59;;;;;;;24.70;14.38;;;;;;;-3.68;95.91;103080.47;4989020;28;20054;-90
2023/02/08 03:51:29;;;;;;;18.05;10.88;;;;;;;-3.59;94.70;103084.72;4996908;28;20058;-89
2023/02/08 03:54:01;;;;;;;25.75;13.48;;;;;;;-3.59;94.43;103069.34;5007070;28;20061;-90
2023/02/08 03:56:35;;;;;;;25.23;14.02;;;;;;;-3.66;93.99;103063.41;5005557;28;20055;-90
2023/02/08 03:59:07;;;;;;;25.83;13.73;;;;;;;-3.54;93.73;103073.59;4995797;28;20049;-90
2023/02/08 04:01:41;;;;;;;20.50;12.73;;;;;;;-3.53;93.41;103077.00;5006930;28;20061;-90
2023/02/08 04:04:08;;;;;;;23.60;13.35;;;;;;;-3.58;93.06;103077.03;4994073;28;20461;-90
2023/02/08 04:06:36;;;;;;;19.60;12.82;;;;;;;-3.52;93.33;103071.03;4993786;28;20051;-90
2023/02/08 04:09:03;;;;;;;25.35;14.20;;;;;;;-3.71;92.96;103055.75;5006506;28;20054;-90
2023/02/08 04:11:29;;;;;;;23.88;14.05;;;;;;;-3.50;93.03;103069.31;5008262;28;20053;-90
2023/02/08 04:13:56;;;;;;;25.27;13.52;;;;;;;-3.57;92.25;103053.13;5005734;28;20066;-92
2023/02/08 04:16:23;;;;;;;26.50;14.23;;;;;;;-3.51;92.58;103072.75;5004646;28;20050;-90
2023/02/08 04:18:49;;;;;;;25.27;14.52;;;;;;;-3.44;92.21;103066.75;5005790;28;20070;-90
2023/02/08 04:21:16;;;;;;;27.02;14.80;;;;;;;-3.46;92.12;103069.31;5005538;28;20112;-92
2023/02/08 04:23:44;;;;;;;27.45;15.15;;;;;;;-3.49;91.96;103065.91;5005422;28;20082;-90
2023/02/08 04:26:12;;;;;;;25.40;14.10;;;;;;;-3.49;91.83;103064.19;5005174;28;20068;-92
2023/02/08 04:28:38;;;;;;;24.45;14.18;;;;;;;-3.54;92.02;103063.38;5000280;28;20054;-90
2023/02/08 04:31:05;;;;;;;25.83;14.35;;;;;;;-3.48;91.75;103077.84;5003609;28;20089;-90
2023/02/08 04:33:32;;;;;;;25.30;14.45;;;;;;;-3.57;91.80;103072.75;4993788;28;20046;-91
2023/02/08 04:35:59;;;;;;;27.25;14.02;;;;;;;-3.53;92.13;103079.56;5004550;28;20054;-91
2023/02/08 04:38:25;;;;;;;25.20;14.57;;;;;;;-3.51;92.01;103081.25;4996230;28;20062;-91
2023/02/08 04:40:53;;;;;;;24.50;13.35;;;;;;;-3.70;91.89;103077.91;4996361;28;20058;-91
2023/02/08 04:43:20;;;;;;;23.80;14.27;;;;;;;-3.73;92.34;103066.84;5001919;28;20058;-90
2023/02/08 04:45:49;;;;;;;22.52;13.57;;;;;;;-3.76;92.22;103088.16;5001364;28;20034;-91
2023/02/08 04:48:21;;;;;;;26.00;13.75;;;;;;;-3.96;92.81;103063.53;5006626;28;20128;-91
2023/02/08 04:50:48;;;;;;;21.77;13.35;;;;;;;-4.00;93.00;103052.44;4993500;28;20054;-91
2023/02/08 04:53:15;;;;;;;22.35;14.05;;;;;;;-3.90;93.43;103074.59;5003720;28;20128;-89
2023/02/08 04:55:42;;;;;;;25.88;14.40;;;;;;;-3.88;93.73;103077.13;5001390;28;20046;-91
2023/02/08 04:58:10;;;;;;;23.73;13.48;;;;;;;-3.99;94.25;103078.88;4993613;28;20058;-90
2023/02/08 05:00:36;;;;;;;28.27;14.65;;;;;;;-4.03;94.42;103080.59;5002974;28;20061;-91
2023/02/08 05:03:04;;;;;;;22.20;14.35;;;;;;;-4.11;94.46;103072.06;5002793;28;20108;-90
2023/02/08 05:05:31;;;;;;;25.55;14.00;;;;;;;-3.97;94.52;103069.47;5003502;28;20081;-90
2023/02/08 05:07:58;;;;;;;24.23;13.88;;;;;;;-4.01;94.88;103066.94;4999814;28;20039;-91
2023/02/08 05:10:25;;;;;;;23.63;13.90;;;;;;;-3.87;94.31;103066.91;4998877;28;20046;-90
2023/02/08 05:12:52;;;;;;;22.65;14.40;;;;;;;-3.84;93.89;103051.56;5001799;28;20047;-91
2023/02/08 05:15:20;;;;;;;24.10;13.50;;;;;;;-3.66;93.81;103073.63;4992153;28;20109;-91
2023/02/08 05:17:47;;;;;;;21.65;13.95;;;;;;;-3.60;93.59;103075.31;5001527;28;20105;-90
2023/02/08 05:20:14;;;;;;;24.25;13.98;;;;;;;-3.59;93.12;103072.75;4993598;28;20502;-91
2023/02/08 05:22:41;;;;;;;23.42;14.40;;;;;;;-3.79;93.18;103075.41;4994594;28;20047;-90
2023/02/08 05:25:08;;;;;;;26.40;13.65;;;;;;;-3.88;92.72;103074.59;4997337;28;20520;-91
2023/02/08 05:27:38;;;;;;;24.52;14.13;;;;;;;-3.84;93.18;103078.84;5006008;28;20062;-91
2023/02/08 05:30:06;;;;;;;26.20;15.18;;;;;;;-3.78;93.44;103074.53;4999043;28;20385;-91
2023/02/08 05:32:35;;;;;;;26.00;14.13;;;;;;;-3.89;92.90;103063.50;5004753;28;20046;-91
2023/02/08 05:35:02;;;;;;;25.33;14.48;;;;;;;-3.77;93.25;103075.38;5012122;28;20054;-90
2023/02/08 05:37:29;;;;;;;24.10;13.98;;;;;;;-3.81;93.52;103069.44;5010453;28;20042;-89
2023/02/08 05:39:56;;;;;;;23.17;13.23;;;;;;;-3.90;93.33;103082.25;5006050;28;20141;-89
2023/02/08 05:42:22;;;;;;;27.48;14.23;;;;;;;-3.84;93.82;103078.84;5015716;28;20057;-88
2023/02/08 05:44:49;;;;;;;27.13;14.30;;;;;;;-3.90;93.82;103074.59;5007953;28;20054;-89
2023/02/08 05:47:16;;;;;;;28.05;14.57;;;;;;;-3.89;93.72;103073.72;5016132;28;20042;-89
2023/02/08 05:49:44;;;;;;;27.88;14.85;;;;;;;-3.74;93.77;103086.44;5008178;28;20049;-88
2023/02/08 05:52:11;;;;;;;24.42;14.32;;;;;;;-3.71;93.56;103085.59;5012281;28;20042;-90
2023/02/08 05:54:37;;;;;;;22.45;13.90;;;;;;;-3.75;93.33;103059.16;5002483;28;20054;-89
2023/02/08 05:57:05;;;;;;;23.75;13.38;;;;;;;-3.61;93.07;103083.88;5006281;28;20378;-90
2023/02/08 05:59:32;;;;;;;24.85;13.85;;;;;;;-3.61;93.09;103073.63;5007083;28;20122;-89
2023/02/08 06:01:59;;;;;;;25.45;14.20;;;;;;;-3.67;92.31;103061.69;5004877;28;20085;-90
2023/02/08 06:04:25;;;;;;;22.50;14.05;;;;;;;-3.52;91.96;103071.88;5006632;28;20058;-89
2023/02/08 06:06:53;;;;;;;25.65;14.13;;;;;;;-3.50;91.43;103064.19;5001978;28;20082;-91
2023/02/08 06:09:20;;;;;;;25.75;14.48;;;;;;;-3.45;91.37;103070.16;4999539;28;20070;-91
2023/02/08 06:11:47;;;;;;;25.35;13.50;;;;;;;-3.50;91.04;103069.31;5006215;28;20042;-90
2023/02/08 06:14:14;;;;;;;25.45;14.13;;;;;;;-3.48;91.03;103072.72;5008144;28;20042;-90
2023/02/08 06:16:40;;;;;;;20.38;13.40;;;;;;;-3.58;91.20;103076.19;5008822;28;20050;-92
2023/02/08 06:19:07;;;;;;;22.88;13.13;;;;;;;-3.70;91.19;103065.13;5007055;28;20050;-90
2023/02/08 06:21:34;;;;;;;23.25;14.43;;;;;;;-3.72;91.95;103084.75;5005967;28;20053;-90
2023/02/08 06:24:02;;;;;;;28.67;15.50;;;;;;;-3.79;91.88;103077.97;5006669;28;20089;-90
2023/02/08 06:28:58;;;;;;;23.83;13.45;;;;;;;-3.80;92.34;103086.50;4974508;28;20280;-80
2023/02/08 06:31:25;;;;;;;26.95;14.68;;;;;;;-3.83;92.37;103093.34;4974650;28;20138;-81
2023/02/08 06:33:51;;;;;;;21.35;13.10;;;;;;;-3.79;92.28;103093.31;4976184;28;20078;-80
2023/02/08 06:36:18;;;;;;;23.27;13.82;;;;;;;-3.93;92.35;103092.50;4976689;28;20129;-81
2023/02/08 06:38:44;;;;;;;22.73;13.25;;;;;;;-3.93;92.85;103092.50;4980533;28;20110;-81
2023/02/08 06:41:12;;;;;;;26.17;13.65;;;;;;;-4.00;92.93;103085.69;4979116;28;20485;-81
2023/02/08 06:43:39;;;;;;;24.35;13.75;;;;;;;-4.05;93.26;103092.50;4981785;28;20087;-81
2023/02/08 06:46:07;;;;;;;29.20;14.00;;;;;;;-3.98;93.64;103101.88;4982779;28;20118;-81
2023/02/08 06:48:34;;;;;;;24.55;14.13;;;;;;;-4.11;93.56;103102.75;4985012;28;20073;-81
2023/02/08 06:51:12;;;;;;;30.48;14.55;;;;;;;-4.21;94.08;103095.94;4989698;28;20059;-84
2023/02/08 06:53:39;;;;;;;25.38;13.52;;;;;;;-4.25;94.38;103096.81;4981497;28;20149;-82
2023/02/08 06:56:06;;;;;;;24.40;14.43;;;;;;;-4.31;94.53;103091.72;4983910;28;20115;-81
2023/02/08 06:58:34;;;;;;;24.95;13.32;;;;;;;-4.36;94.75;103100.22;4986496;28;20086;-82
2023/02/08 07:01:00;;;;;;;32.22;14.48;;;;;;;-4.38;95.03;103098.53;4987761;28;20078;-82
2023/02/08 07:03:27;;;;;;;25.50;15.55;;;;;;;-4.37;95.46;103098.53;4983860;28;20504;-81
2023/02/08 07:05:53;;;;;;;47.80;26.25;;;;;;;-4.40;95.68;103092.56;4976039;28;20078;-82
2023/02/08 07:08:20;;;;;;;37.72;21.80;;;;;;;-4.39;95.93;103097.69;4981520;28;20047;-81
2023/02/08 07:10:47;;;;;;;28.42;16.98;;;;;;;-4.31;96.15;103094.28;4981647;28;20061;-81
2023/02/08 07:13:14;;;;;;;32.45;17.33;;;;;;;-4.31;96.12;103077.22;4980012;28;20516;-82
2023/02/08 07:15:42;;;;;;;29.63;15.77;;;;;;;-4.33;96.31;103089.16;4977853;28;20054;-82
2023/02/08 07:18:08;;;;;;;32.83;16.42;;;;;;;-4.32;96.31;103077.22;4978908;28;20054;-82
2023/02/08 07:20:35;;;;;;;35.17;15.82;;;;;;;-4.21;96.35;103075.47;4986832;28;20074;-82
2023/02/08 07:23:01;;;;;;;37.05;16.65;;;;;;;-4.20;96.53;103075.47;4984112;28;20070;-82
2023/02/08 07:25:28;;;;;;;29.08;15.48;;;;;;;-4.12;96.11;103084.00;4988560;28;20097;-79
2023/02/08 07:27:55;;;;;;;24.20;14.77;;;;;;;-4.06;96.21;103078.03;4984216;28;20090;-79
2023/02/08 07:30:21;;;;;;;29.40;14.82;;;;;;;-3.97;95.71;103075.44;4983231;28;20139;-78
2023/02/08 07:32:49;;;;;;;29.73;13.55;;;;;;;-3.76;95.20;103070.25;4984935;28;20066;-79
2023/02/08 07:35:16;;;;;;;23.85;14.00;;;;;;;-3.52;95.11;103071.88;4981237;28;20102;-79
2023/02/08 07:37:42;;;;;;;21.23;13.45;;;;;;;-3.20;95.07;103068.31;4981108;28;20082;-78
2023/02/08 07:40:10;;;;;;;33.53;14.05;;;;;;;-2.88;94.39;103063.00;4980396;28;20401;-78
2023/02/08 07:42:37;;;;;;;25.23;13.02;;;;;;;-2.58;93.33;103070.44;4981464;28;20118;-78
2023/02/08 07:45:04;;;;;;;20.10;13.18;;;;;;;-2.18;92.69;103070.06;4981044;28;20106;-78
2023/02/08 07:47:31;;;;;;;22.50;13.30;;;;;;;-2.04;90.92;103052.84;4979722;28;20042;-80
2023/02/08 07:49:59;;;;;;;23.73;12.10;;;;;;;-1.57;89.59;103049.72;4977219;28;20078;-80
2023/02/08 07:52:25;;;;;;;21.95;13.23;;;;;;;-1.06;88.48;103050.72;4978065;28;20115;-80
2023/02/08 07:54:52;;;;;;;23.58;13.07;;;;;;;-0.47;87.14;103054.03;4979613;28;20076;-81
2023/02/08 07:57:20;;;;;;;31.17;18.35;;;;;;;0.02;85.15;103039.44;4978180;28;20055;-80
2023/02/08 07:59:47;;;;;;;26.38;13.82;;;;;;;0.62;83.17;103042.47;4977938;28;20454;-79
2023/02/08 08:02:15;;;;;;;21.10;13.60;;;;;;;1.02;80.98;103036.41;4978025;28;20046;-81
2023/02/08 08:04:41;;;;;;;21.48;12.35;;;;;;;0.99;78.75;103021.88;4976237;28;20125;-79
2023/02/08 08:07:09;;;;;;;20.00;12.70;;;;;;;0.92;77.37;103015.19;4977712;28;20082;-81
2023/02/08 08:09:36;;;;;;;19.52;12.50;;;;;;;0.80;76.59;103024.03;4978174;28;20125;-82
2023/02/08 08:12:03;;;;;;;18.55;11.80;;;;;;;1.25;76.17;103022.09;4977945;28;20146;-81
2023/02/08 08:14:31;;;;;;;20.65;12.68;;;;;;;1.19;75.04;103021.41;4978612;28;20062;-81
2023/02/08 08:16:57;;;;;;;23.80;12.77;;;;;;;0.42;75.91;103022.31;4975765;28;20050;-82
2023/02/08 08:19:24;;;;;;;23.10;13.30;;;;;;;0.51;75.87;103036.69;4977951;28;20070;-83
2023/02/08 08:22:35;;;;;;;18.38;12.23;;;;;;;0.04;77.17;103037.66;4977560;28;20177;-81
2023/02/08 08:25:52;;;;;;;20.38;12.43;;;;;;;-0.10;77.95;103019.94;4978725;28;20505;-81
2023/02/08 08:28:38;;;;;;;18.70;12.27;;;;;;;0.01;77.86;103043.72;4878514;29;20053;-82
2023/02/08 08:31:31;;;;;;;17.27;11.65;;;;;;;0.19;77.81;103045.94;4889974;29;20047;-82
2023/02/08 08:34:02;;;;;;;17.40;11.95;;;;;;;0.28;76.49;103032.91;4886571;29;20085;-81
2023/02/08 08:36:35;;;;;;;18.48;11.88;;;;;;;1.09;75.57;103025.06;4882650;29;20061;-82
2023/02/08 08:39:32;;;;;;;20.45;11.15;;;;;;;0.86;74.72;103034.22;4905658;28;20139;-81
2023/02/08 08:42:13;;;;;;;22.35;10.95;;;;;;;0.81;74.54;102999.97;4975561;28;20069;-81
2023/02/08 08:50:57;;;;;;;16.95;10.50;;;;;;;0.68;72.81;103008.84;4911411;29;20165;-81
2023/02/08 08:53:33;;;;;;;18.08;11.23;;;;;;;0.30;73.12;102997.66;4960533;28;20050;-79
2023/02/08 08:56:07;;;;;;;17.58;11.25;;;;;;;0.05;73.54;102998.19;4977449;28;20537;-81
2023/02/08 08:59:15;;;;;;;17.50;11.35;;;;;;;-0.04;73.44;103010.38;4974752;28;20141;-80
2023/02/08 09:01:42;;;;;;;20.40;11.48;;;;;;;0.04;73.54;103020.50;4966508;28;20129;-80
2023/02/08 09:04:10;;;;;;;16.02;10.65;;;;;;;0.11;73.41;103024.66;4968949;28;20070;-80
2023/02/08 09:06:37;;;;;;;18.67;11.23;;;;;;;0.12;73.86;103017.78;4975834;28;20133;-82
2023/02/08 09:09:04;;;;;;;17.67;11.00;;;;;;;0.19;73.75;103030.50;4979285;28;20070;-79
2023/02/08 09:11:32;;;;;;;19.10;11.38;;;;;;;0.23;73.48;103029.56;4979704;28;20130;-81
2023/02/08 09:13:59;;;;;;;16.60;10.57;;;;;;;0.25;73.35;103017.50;4976704;28;20054;-81
2023/02/08 09:16:25;;;;;;;18.65;10.82;;;;;;;0.26;73.12;103015.78;4982722;28;20066;-82
2023/02/08 09:18:52;;;;;;;16.20;10.55;;;;;;;0.40;73.19;103026.66;4978116;28;20082;-81
2023/02/08 09:21:23;;;;;;;17.80;11.13;;;;;;;0.52;73.10;103021.22;4977824;28;20074;-82
2023/02/08 09:23:50;;;;;;;19.50;11.43;;;;;;;0.56;72.80;103019.41;4976498;28;20053;-81
2023/02/08 09:26:19;;;;;;;19.92;11.18;;;;;;;0.62;72.72;103020.13;4978244;28;20138;-80
2023/02/08 09:28:46;;;;;;;22.40;12.20;;;;;;;0.64;71.92;103012.38;4973586;28;20117;-82
2023/02/08 09:31:18;;;;;;;19.77;10.38;;;;;;;0.79;72.15;103017.19;4967757;28;20110;-82
2023/02/08 09:33:44;;;;;;;18.48;9.77;;;;;;;0.90;70.30;103009.22;4974237;28;20085;-81
2023/02/08 09:36:11;;;;;;;15.55;9.60;;;;;;;0.90;69.11;103004.91;4974328;28;20055;-81
2023/02/08 09:38:39;;;;;;;15.77;9.52;;;;;;;1.03;69.26;103002.00;4975258;28;20082;-81
2023/02/08 09:41:24;;;;;;;15.93;9.63;;;;;;;1.06;70.04;103009.69;4974292;28;20285;-82
2023/02/08 09:44:06;;;;;;;16.58;10.15;;;;;;;1.03;68.70;102989.13;4974136;28;20058;-82
2023/02/08 09:46:38;;;;;;;16.00;10.30;;;;;;;1.16;68.53;102996.53;4973295;28;20055;-82
2023/02/08 09:49:14;;;;;;;15.02;9.48;;;;;;;1.21;68.04;102993.84;4973540;28;20058;-81
2023/02/08 09:51:43;;;;;;;16.70;10.27;;;;;;;1.37;67.16;102989.16;4973861;28;20142;-81
2023/02/08 09:54:18;;;;;;;15.18;10.05;;;;;;;1.38;67.22;102990.84;4973382;28;20137;-82
2023/02/08 09:56:47;;;;;;;17.48;10.02;;;;;;;1.35;66.30;102981.44;4974771;28;20055;-82
2023/02/08 09:59:18;;;;;;;15.02;9.75;;;;;;;1.54;66.45;102990.38;4968076;28;20421;-82
2023/02/08 10:01:49;;;;;;;15.82;9.45;;;;;;;1.52;66.30;102987.00;4976746;28;20074;-83
2023/02/08 10:04:25;;;;;;;16.00;10.30;;;;;;;1.70;66.54;102977.09;4977818;28;20046;-83
2023/02/08 10:06:52;;;;;;;16.98;9.35;;;;;;;1.82;65.70;102980.19;4981410;28;20089;-83
2023/02/08 10:09:26;;;;;;;16.13;10.30;;;;;;;1.82;65.70;102981.91;4984998;28;20050;-83
2023/02/08 10:12:06;;;;;;;16.08;9.95;;;;;;;1.71;65.10;102973.59;4987859;28;20082;-81
2023/02/08 10:14:54;;;;;;;18.83;10.35;;;;;;;1.86;64.65;102976.63;4983536;28;20074;-82
2023/02/08 10:17:36;;;;;;;17.60;10.68;;;;;;;1.84;64.19;102982.72;4981049;28;20055;-80
2023/02/08 10:20:17;;;;;;;16.25;10.07;;;;;;;1.86;63.61;102970.63;4976623;28;20068;-81
2023/02/08 10:22:57;;;;;;;18.35;10.20;;;;;;;2.12;63.76;102987.94;4972092;28;20054;-81
2023/02/08 10:25:58;;;;;;;16.92;10.20;;;;;;;2.18;63.53;102972.25;4970933;28;20087;-80
2023/02/08 10:28:55;;;;;;;15.52;9.60;;;;;;;2.31;63.55;102992.53;4979236;28;20058;-81
2023/02/08 10:31:33;;;;;;;18.95;10.30;;;;;;;2.29;63.15;102977.97;4979339;28;20540;-81
2023/02/08 10:34:04;;;;;;;14.35;9.98;;;;;;;2.32;62.88;102975.28;4979705;28;20039;-80
2023/02/08 10:36:33;;;;;;;14.45;9.32;;;;;;;2.37;62.37;102964.78;4979594;28;20042;-81
2023/02/08 10:39:03;;;;;;;13.98;9.40;;;;;;;2.36;61.70;102979.47;4982256;28;20062;-81
2023/02/08 10:41:36;;;;;;;15.32;9.15;;;;;;;2.42;61.98;102981.00;4982963;28;20517;-81
2023/02/08 10:44:16;;;;;;;14.18;9.45;;;;;;;2.60;61.68;102972.69;4980380;28;20058;-81
2023/02/08 10:46:50;;;;;;;19.33;10.30;;;;;;;2.61;61.48;102984.72;4974838;28;20109;-81
2023/02/08 10:49:23;;;;;;;19.05;9.95;;;;;;;2.64;60.21;102979.47;4974019;28;20082;-81
2023/02/08 10:51:50;;;;;;;13.63;9.13;;;;;;;2.65;59.86;102976.00;4969582;28;20083;-81
2023/02/08 10:54:17;;;;;;;14.52;9.13;;;;;;;2.74;59.73;102970.53;4974820;28;20078;-83
2023/02/08 10:56:51;;;;;;;16.13;9.77;;;;;;;2.66;59.17;102983.69;4979835;28;20046;-81
2023/02/08 10:59:21;;;;;;;14.48;9.20;;;;;;;2.71;58.60;102985.31;4982741;28;20062;-81
2023/02/08 11:01:49;;;;;;;14.50;9.73;;;;;;;2.83;59.07;102985.75;4985242;28;20085;-81
2023/02/08 11:04:17;;;;;;;16.42;9.27;;;;;;;3.03;58.31;102976.50;4985112;28;20061;-82
2023/02/08 11:06:45;;;;;;;16.25;9.20;;;;;;;2.91;57.69;102969.97;4976389;28;20165;-82
2023/02/08 11:09:27;;;;;;;15.75;9.20;;;;;;;2.94;57.47;102969.88;4980637;28;20050;-82
2023/02/08 11:11:57;;;;;;;14.07;9.37;;;;;;;2.89;57.35;102980.38;4983956;28;20054;-82
2023/02/08 11:14:26;;;;;;;15.75;8.95;;;;;;;3.03;57.33;102971.31;4972697;28;20146;-81
2023/02/08 11:17:00;;;;;;;14.68;8.55;;;;;;;3.31;56.99;102969.50;4975971;28;20051;-82
2023/02/08 11:26:36;;;;;;;15.77;8.88;;;;;;;3.54;55.52;102964.38;4917802;29;20107;-83
2023/02/08 11:32:39;;;;;;;13.93;8.82;;;;;;;3.48;55.62;102933.53;4979265;28;20188;-81
2023/02/08 11:35:32;;;;;;;13.02;9.10;;;;;;;3.55;55.97;102939.34;4986192;28;20082;-82
2023/02/08 11:38:06;;;;;;;13.32;9.02;;;;;;;3.45;55.76;102917.25;4981733;28;20127;-81
2023/02/08 11:40:44;;;;;;;16.15;9.20;;;;;;;3.65;55.60;102915.66;4979047;28;20046;-82
2023/02/08 11:43:26;;;;;;;15.48;9.40;;;;;;;3.74;55.21;102924.00;4981836;28;20055;-82
2023/02/08 11:46:12;;;;;;;13.27;8.80;;;;;;;3.85;55.50;102909.72;4980358;28;20074;-81
2023/02/08 11:48:46;;;;;;;14.73;9.18;;;;;;;4.03;55.79;102931.50;4978942;28;20047;-79
2023/02/08 11:51:33;;;;;;;16.13;8.45;;;;;;;4.17;55.28;102934.44;4977694;28;20410;-81